sensor_id;sensor_type;location;lat;lon;timestamp;temperature;humidity
13086;DHT22;6609;49.882;8.664;2023-10-09T13:21:33;21.00;65.20
13086;DHT22;6609;49.882;8.664;2023-10-09T13:26:28;21.10;66.70
13086;DHT22;6609;49.882;8.664;2023-10-09T13:28:57;21.20;66.40
13086;DHT22;6609;49.882;8.664;2023-10-09T13:31:25;21.20;65.30
13086;DHT22;6609;49.882;8.664;2023-10-09T13:33:53;21.30;64.60
13086;DHT22;6609;49.882;8.664;2023-10-09T13:36:21;21.40;64.00
13086;DHT22;6609;49.882;8.664;2023-10-09T13:38:55;21.40;63.40
13086;DHT22;6609;49.882;8.664;2023-10-09T13:41:21;21.50;63.10
13086;DHT22;6609;49.882;8.664;2023-10-09T13:43:51;21.50;62.90
13086;DHT22;6609;49.882;8.664;2023-10-09T13:51:15;21.60;61.70
13086;DHT22;6609;49.882;8.664;2023-10-09T13:53:44;21.70;61.00
13086;DHT22;6609;49.882;8.664;2023-10-09T13:56:16;21.70;59.80
13086;DHT22;6609;49.882;8.664;2023-10-09T14:01:13;21.70;60.40
13086;DHT22;6609;49.882;8.664;2023-10-09T14:03:47;21.80;59.60
13086;DHT22;6609;49.882;8.664;2023-10-09T14:06:15;21.80;59.20
13086;DHT22;6609;49.882;8.664;2023-10-09T14:08:49;21.80;59.40
13086;DHT22;6609;49.882;8.664;2023-10-09T14:11:17;21.80;58.30
13086;DHT22;6609;49.882;8.664;2023-10-09T14:13:44;21.80;57.80
13086;DHT22;6609;49.882;8.664;2023-10-09T14:18:49;21.80;57.30
13086;DHT22;6609;49.882;8.664;2023-10-09T14:21:19;21.90;57.00
13086;DHT22;6609;49.882;8.664;2023-10-09T14:28:45;21.90;56.80
13086;DHT22;6609;49.882;8.664;2023-10-09T14:38:41;21.80;56.20
13086;DHT22;6609;49.882;8.664;2023-10-09T14:43:37;21.80;56.60
13086;DHT22;6609;49.882;8.664;2023-10-09T14:46:05;21.90;56.40
13086;DHT22;6609;49.882;8.664;2023-10-09T15:03:26;21.90;56.50
13086;DHT22;6609;49.882;8.664;2023-10-09T15:06:03;21.90;56.70
13086;DHT22;6609;49.882;8.664;2023-10-09T15:08:34;21.90;56.50
13086;DHT22;6609;49.882;8.664;2023-10-09T15:11:02;21.80;56.60
13086;DHT22;6609;49.882;8.664;2023-10-09T15:18:25;21.80;56.20
13086;DHT22;6609;49.882;8.664;2023-10-09T15:28:18;21.70;57.20
13086;DHT22;6609;49.882;8.664;2023-10-09T15:33:14;21.70;58.00
13086;DHT22;6609;49.882;8.664;2023-10-09T15:35:43;21.70;57.50
13086;DHT22;6609;49.882;8.664;2023-10-09T15:38:12;21.70;57.90
13086;DHT22;6609;49.882;8.664;2023-10-09T15:45:41;21.70;57.80
13086;DHT22;6609;49.882;8.664;2023-10-09T15:48:10;21.70;57.70
13086;DHT22;6609;49.882;8.664;2023-10-09T15:50:38;21.60;57.40
13086;DHT22;6609;49.882;8.664;2023-10-09T15:53:06;21.70;57.60
13086;DHT22;6609;49.882;8.664;2023-10-09T15:55:34;21.60;57.90
13086;DHT22;6609;49.882;8.664;2023-10-09T15:58:03;21.60;57.80
13086;DHT22;6609;49.882;8.664;2023-10-09T16:00:34;21.60;57.80
13086;DHT22;6609;49.882;8.664;2023-10-09T16:03:04;21.60;58.30
13086;DHT22;6609;49.882;8.664;2023-10-09T16:05:35;21.50;58.50
13086;DHT22;6609;49.882;8.664;2023-10-09T16:08:02;21.50;59.10
13086;DHT22;6609;49.882;8.664;2023-10-09T16:10:31;21.50;59.00
13086;DHT22;6609;49.882;8.664;2023-10-09T16:22:57;21.20;59.50
13086;DHT22;6609;49.882;8.664;2023-10-09T16:25:24;21.20;59.60
13086;DHT22;6609;49.882;8.664;2023-10-09T16:27:53;21.10;60.00
13086;DHT22;6609;49.882;8.664;2023-10-09T16:30:21;21.10;60.80
13086;DHT22;6609;49.882;8.664;2023-10-09T16:35:16;21.00;59.70
13086;DHT22;6609;49.882;8.664;2023-10-09T16:37:43;21.00;59.80
13086;DHT22;6609;49.882;8.664;2023-10-09T16:40:10;21.00;60.50
13086;DHT22;6609;49.882;8.664;2023-10-09T16:42:39;20.90;60.70
13086;DHT22;6609;49.882;8.664;2023-10-09T16:45:09;20.90;61.40
13086;DHT22;6609;49.882;8.664;2023-10-09T16:47:41;20.80;61.80
13086;DHT22;6609;49.882;8.664;2023-10-09T16:50:08;20.80;62.50
13086;DHT22;6609;49.882;8.664;2023-10-09T16:55:05;20.70;63.20
13086;DHT22;6609;49.882;8.664;2023-10-09T16:57:35;20.60;64.20
13086;DHT22;6609;49.882;8.664;2023-10-09T17:00:05;20.60;64.80
13086;DHT22;6609;49.882;8.664;2023-10-09T17:02:39;20.50;65.70
13086;DHT22;6609;49.882;8.664;2023-10-09T17:05:08;20.50;66.70
13086;DHT22;6609;49.882;8.664;2023-10-09T17:07:38;20.40;67.30
13086;DHT22;6609;49.882;8.664;2023-10-09T17:10:05;20.40;68.00
13086;DHT22;6609;49.882;8.664;2023-10-09T17:12:34;20.40;67.80
13086;DHT22;6609;49.882;8.664;2023-10-09T17:15:05;20.30;67.60
13086;DHT22;6609;49.882;8.664;2023-10-09T17:17:32;20.40;67.70
13086;DHT22;6609;49.882;8.664;2023-10-09T17:20:00;20.30;67.80
13086;DHT22;6609;49.882;8.664;2023-10-09T17:25:02;20.20;69.10
13086;DHT22;6609;49.882;8.664;2023-10-09T17:29:56;20.10;70.70
13086;DHT22;6609;49.882;8.664;2023-10-09T17:32:23;20.10;71.10
13086;DHT22;6609;49.882;8.664;2023-10-09T17:34:50;20.00;71.60
13086;DHT22;6609;49.882;8.664;2023-10-09T17:37:20;20.00;72.10
13086;DHT22;6609;49.882;8.664;2023-10-09T17:54:38;19.70;74.90
13086;DHT22;6609;49.882;8.664;2023-10-09T18:01:59;19.50;76.10
13086;DHT22;6609;49.882;8.664;2023-10-09T18:04:27;19.50;76.10
13086;DHT22;6609;49.882;8.664;2023-10-09T18:24:18;19.10;78.40
13086;DHT22;6609;49.882;8.664;2023-10-09T18:29:17;19.00;78.70
13086;DHT22;6609;49.882;8.664;2023-10-09T18:34:10;18.90;79.00
13086;DHT22;6609;49.882;8.664;2023-10-09T18:36:38;18.90;79.00
13086;DHT22;6609;49.882;8.664;2023-10-09T18:39:05;18.80;79.20
13086;DHT22;6609;49.882;8.664;2023-10-09T18:41:33;18.80;79.50
13086;DHT22;6609;49.882;8.664;2023-10-09T18:46:36;18.70;79.80
13086;DHT22;6609;49.882;8.664;2023-10-09T18:51:30;18.60;80.20
13086;DHT22;6609;49.882;8.664;2023-10-09T18:56:28;18.60;80.30
13086;DHT22;6609;49.882;8.664;2023-10-09T19:03:56;18.50;80.40
13086;DHT22;6609;49.882;8.664;2023-10-09T19:08:54;18.40;80.50
13086;DHT22;6609;49.882;8.664;2023-10-09T19:11:24;18.40;80.70
13086;DHT22;6609;49.882;8.664;2023-10-09T19:16:20;18.40;81.10
13086;DHT22;6609;49.882;8.664;2023-10-09T19:18:47;18.30;81.20
13086;DHT22;6609;49.882;8.664;2023-10-09T19:21:15;18.30;81.40
13086;DHT22;6609;49.882;8.664;2023-10-09T19:26:11;18.30;81.50
13086;DHT22;6609;49.882;8.664;2023-10-09T19:28:40;18.30;81.70
13086;DHT22;6609;49.882;8.664;2023-10-09T19:33:36;18.20;82.20
13086;DHT22;6609;49.882;8.664;2023-10-09T19:36:03;18.20;82.50
13086;DHT22;6609;49.882;8.664;2023-10-09T19:38:37;18.20;82.60
13086;DHT22;6609;49.882;8.664;2023-10-09T19:41:04;18.20;83.00
13086;DHT22;6609;49.882;8.664;2023-10-09T19:43:31;18.10;83.10
13086;DHT22;6609;49.882;8.664;2023-10-09T19:48:28;18.10;83.20
13086;DHT22;6609;49.882;8.664;2023-10-09T19:53:25;18.00;83.10
13086;DHT22;6609;49.882;8.664;2023-10-09T19:58:21;18.00;83.20
13086;DHT22;6609;49.882;8.664;2023-10-09T20:05:46;17.90;83.40
13086;DHT22;6609;49.882;8.664;2023-10-09T20:08:13;17.90;83.40
13086;DHT22;6609;49.882;8.664;2023-10-09T20:13:08;17.80;83.60
13086;DHT22;6609;49.882;8.664;2023-10-09T20:15:35;17.80;83.80
13086;DHT22;6609;49.882;8.664;2023-10-09T20:20:38;17.80;84.00
13086;DHT22;6609;49.882;8.664;2023-10-09T20:23:05;17.70;84.00
13086;DHT22;6609;49.882;8.664;2023-10-09T20:30:27;17.60;84.20
13086;DHT22;6609;49.882;8.664;2023-10-09T20:32:55;17.60;84.30
13086;DHT22;6609;49.882;8.664;2023-10-09T20:35:21;17.60;84.40
13086;DHT22;6609;49.882;8.664;2023-10-09T20:37:52;17.60;84.30
13086;DHT22;6609;49.882;8.664;2023-10-09T20:40:19;17.50;84.30
13086;DHT22;6609;49.882;8.664;2023-10-09T20:42:47;17.50;84.20
13086;DHT22;6609;49.882;8.664;2023-10-09T20:45:16;17.40;84.60
13086;DHT22;6609;49.882;8.664;2023-10-09T20:47:44;17.30;84.80
13086;DHT22;6609;49.882;8.664;2023-10-09T20:50:12;17.30;85.10
13086;DHT22;6609;49.882;8.664;2023-10-09T20:52:44;17.30;85.30
13086;DHT22;6609;49.882;8.664;2023-10-09T20:57:41;17.20;85.50
13086;DHT22;6609;49.882;8.664;2023-10-09T21:00:10;17.20;85.40
13086;DHT22;6609;49.882;8.664;2023-10-09T21:02:45;17.10;85.50
13086;DHT22;6609;49.882;8.664;2023-10-09T21:05:13;17.10;85.50
13086;DHT22;6609;49.882;8.664;2023-10-09T21:07:40;17.10;85.40
13086;DHT22;6609;49.882;8.664;2023-10-09T21:15:07;17.00;85.20
13086;DHT22;6609;49.882;8.664;2023-10-09T21:20:09;16.90;85.10
13086;DHT22;6609;49.882;8.664;2023-10-09T21:22:43;16.80;85.10
13086;DHT22;6609;49.882;8.664;2023-10-09T21:25:12;16.80;85.20
13086;DHT22;6609;49.882;8.664;2023-10-09T21:30:08;16.80;85.50
13086;DHT22;6609;49.882;8.664;2023-10-09T21:32:41;16.80;85.50
13086;DHT22;6609;49.882;8.664;2023-10-09T21:35:11;16.70;85.40
13086;DHT22;6609;49.882;8.664;2023-10-09T21:42:39;16.60;85.30
13086;DHT22;6609;49.882;8.664;2023-10-09T21:45:07;16.60;85.30
13086;DHT22;6609;49.882;8.664;2023-10-09T21:50:03;16.50;85.40
13086;DHT22;6609;49.882;8.664;2023-10-09T21:52:31;16.50;85.70
13086;DHT22;6609;49.882;8.664;2023-10-09T21:55:00;16.50;85.90
13086;DHT22;6609;49.882;8.664;2023-10-09T21:57:27;16.50;86.00
13086;DHT22;6609;49.882;8.664;2023-10-09T22:09:44;16.40;86.30
13086;DHT22;6609;49.882;8.664;2023-10-09T22:12:11;16.40;86.40
13086;DHT22;6609;49.882;8.664;2023-10-09T22:14:39;16.30;86.20
13086;DHT22;6609;49.882;8.664;2023-10-09T22:17:07;16.30;86.20
13086;DHT22;6609;49.882;8.664;2023-10-09T22:19:33;16.30;86.30
13086;DHT22;6609;49.882;8.664;2023-10-09T22:22:02;16.30;86.30
13086;DHT22;6609;49.882;8.664;2023-10-09T22:24:36;16.30;86.30
13086;DHT22;6609;49.882;8.664;2023-10-09T22:27:07;16.30;86.10
13086;DHT22;6609;49.882;8.664;2023-10-09T22:29:42;16.20;86.00
13086;DHT22;6609;49.882;8.664;2023-10-09T22:32:12;16.20;85.90
13086;DHT22;6609;49.882;8.664;2023-10-09T22:34:42;16.20;86.10
13086;DHT22;6609;49.882;8.664;2023-10-09T22:39:40;16.10;86.20
13086;DHT22;6609;49.882;8.664;2023-10-09T22:42:08;16.10;86.00
13086;DHT22;6609;49.882;8.664;2023-10-09T22:44:35;16.10;86.10
13086;DHT22;6609;49.882;8.664;2023-10-09T22:47:04;16.10;86.10
13086;DHT22;6609;49.882;8.664;2023-10-09T22:54:36;16.00;86.30
13086;DHT22;6609;49.882;8.664;2023-10-09T22:57:08;15.90;86.20
13086;DHT22;6609;49.882;8.664;2023-10-09T22:59:35;15.90;86.30
13086;DHT22;6609;49.882;8.664;2023-10-09T23:02:17;15.90;86.40
13086;DHT22;6609;49.882;8.664;2023-10-09T23:10:09;15.80;86.60
13086;DHT22;6609;49.882;8.664;2023-10-09T23:12:46;15.80;86.80
13086;DHT22;6609;49.882;8.664;2023-10-09T23:17:55;15.80;86.90
13086;DHT22;6609;49.882;8.664;2023-10-09T23:22:55;15.70;86.90
13086;DHT22;6609;49.882;8.664;2023-10-09T23:25:24;15.70;86.90
13086;DHT22;6609;49.882;8.664;2023-10-09T23:28:00;15.70;86.80
13086;DHT22;6609;49.882;8.664;2023-10-09T23:30:44;15.70;86.90
13086;DHT22;6609;49.882;8.664;2023-10-09T23:33:17;15.60;86.80
13086;DHT22;6609;49.882;8.664;2023-10-09T23:43:26;15.60;87.00
13086;DHT22;6609;49.882;8.664;2023-10-09T23:45:55;15.50;87.00
13086;DHT22;6609;49.882;8.664;2023-10-09T23:48:24;15.60;86.90
13086;DHT22;6609;49.882;8.664;2023-10-09T23:50:53;15.50;87.00
13086;DHT22;6609;49.882;8.664;2023-10-09T23:53:26;15.50;87.10
13086;DHT22;6609;49.882;8.664;2023-10-09T23:55:54;15.50;87.10
13086;DHT22;6609;49.882;8.664;2023-10-09T23:58:29;15.40;87.10
